sensor_id;sensor_type;location;lat;lon;timestamp;pressure;altitude;pressure_sealevel;temperature;humidity
42247;BME280;27913;42.722;23.268;2023-05-11T08:58:09;95269.78;;;13.45;60.85
42247;BME280;27913;42.722;23.268;2023-05-11T09:00:35;95311.81;;;13.82;59.93
42247;BME280;27913;42.722;23.268;2023-05-11T09:03:02;95261.66;;;13.40;59.13
42247;BME280;27913;42.722;23.268;2023-05-11T09:05:29;95303.22;;;13.60;60.59
42247;BME280;27913;42.722;23.268;2023-05-11T09:07:58;95310.53;;;13.71;60.27
42247;BME280;27913;42.722;23.268;2023-05-11T09:10:24;95231.00;;;13.46;58.97
42247;BME280;27913;42.722;23.268;2023-05-11T09:12:50;95253.00;;;13.67;59.07
42247;BME280;27913;42.722;23.268;2023-05-11T09:15:15;95197.59;;;13.24;59.28
42247;BME280;27913;42.722;23.268;2023-05-11T09:17:40;95304.31;;;14.06;59.27
42247;BME280;27913;42.722;23.268;2023-05-11T09:20:06;95266.25;;;13.94;59.22
42247;BME280;27913;42.722;23.268;2023-05-11T09:22:41;95166.75;;;13.45;59.42
42247;BME280;27913;42.722;23.268;2023-05-11T09:25:10;95310.84;;;14.44;58.64
42247;BME280;27913;42.722;23.268;2023-05-11T09:27:41;95303.53;;;14.33;58.38
42247;BME280;27913;42.722;23.268;2023-05-11T09:30:15;95307.19;;;14.32;58.50
42247;BME280;27913;42.722;23.268;2023-05-11T09:32:57;95311.66;;;14.31;58.97
42247;BME280;27913;42.722;23.268;2023-05-11T09:35:28;95310.44;;;14.47;58.81
42247;BME280;27913;42.722;23.268;2023-05-11T09:38:08;95310.44;;;14.61;57.73
42247;BME280;27913;42.722;23.268;2023-05-11T09:40:37;95238.59;;;14.23;57.49
42247;BME280;27913;42.722;23.268;2023-05-11T09:43:22;95264.25;;;14.30;57.95
42247;BME280;27913;42.722;23.268;2023-05-11T09:45:50;95284.19;;;14.59;57.72
42247;BME280;27913;42.722;23.268;2023-05-11T09:50:41;95249.59;;;14.20;58.59
42247;BME280;27913;42.722;23.268;2023-05-11T09:53:07;95290.09;;;14.21;59.89
42247;BME280;27913;42.722;23.268;2023-05-11T09:55:33;95294.38;;;14.35;59.99
42247;BME280;27913;42.722;23.268;2023-05-11T09:57:59;95297.63;;;14.31;59.83
42247;BME280;27913;42.722;23.268;2023-05-11T10:00:24;95252.84;;;13.95;60.61
42247;BME280;27913;42.722;23.268;2023-05-11T10:03:05;95295.59;;;14.33;60.04
42247;BME280;27913;42.722;23.268;2023-05-11T10:05:33;95292.94;;;14.46;59.39
42247;BME280;27913;42.722;23.268;2023-05-11T10:08:01;95245.94;;;14.28;59.01
42247;BME280;27913;42.722;23.268;2023-05-11T10:10:30;95288.06;;;14.43;60.00
42247;BME280;27913;42.722;23.268;2023-05-11T10:13:00;95287.44;;;14.48;59.37
42247;BME280;27913;42.722;23.268;2023-05-11T10:15:27;95286.41;;;14.56;58.91
42247;BME280;27913;42.722;23.268;2023-05-11T10:17:54;95191.63;;;13.78;59.37
42247;BME280;27913;42.722;23.268;2023-05-11T10:20:20;95237.78;;;14.09;60.10
42247;BME280;27913;42.722;23.268;2023-05-11T10:22:46;95265.25;;;14.15;60.71
42247;BME280;27913;42.722;23.268;2023-05-11T10:25:12;95213.78;;;13.84;60.67
42247;BME280;27913;42.722;23.268;2023-05-11T10:27:38;95238.00;;;13.87;60.68
42247;BME280;27913;42.722;23.268;2023-05-11T10:30:06;95210.94;;;13.85;60.35
42247;BME280;27913;42.722;23.268;2023-05-11T10:32:35;95221.50;;;14.06;59.85
42247;BME280;27913;42.722;23.268;2023-05-11T10:35:02;95260.78;;;14.16;60.74
42247;BME280;27913;42.722;23.268;2023-05-11T10:37:29;95259.97;;;14.08;61.01
42247;BME280;27913;42.722;23.268;2023-05-11T10:39:56;95195.47;;;14.03;59.62
42247;BME280;27913;42.722;23.268;2023-05-11T10:45:04;95216.22;;;14.06;60.33
42247;BME280;27913;42.722;23.268;2023-05-11T10:50:31;95252.44;;;14.46;60.03
42247;BME280;27913;42.722;23.268;2023-05-11T11:01:56;95241.78;;;14.87;57.82
42247;BME280;27913;42.722;23.268;2023-05-11T11:04:40;95151.84;;;14.59;56.95
42247;BME280;27913;42.722;23.268;2023-05-11T11:07:06;95198.41;;;14.94;57.03
42247;BME280;27913;42.722;23.268;2023-05-11T11:09:58;95246.09;;;15.40;55.57
42247;BME280;27913;42.722;23.268;2023-05-11T11:12:25;95218.72;;;15.07;55.78
42247;BME280;27913;42.722;23.268;2023-05-11T11:17:23;95203.44;;;15.03;56.45
42247;BME280;27913;42.722;23.268;2023-05-11T11:19:49;95243.88;;;15.30;55.69
42247;BME280;27913;42.722;23.268;2023-05-11T11:25:04;95238.31;;;15.45;55.63
42247;BME280;27913;42.722;23.268;2023-05-11T11:30:30;95180.53;;;15.22;55.38
42247;BME280;27913;42.722;23.268;2023-05-11T11:38:14;95177.72;;;15.81;53.67
42247;BME280;27913;42.722;23.268;2023-05-11T11:40:42;95141.66;;;15.48;53.46
42247;BME280;27913;42.722;23.268;2023-05-11T11:43:16;95189.03;;;15.96;53.37
42247;BME280;27913;42.722;23.268;2023-05-11T11:51:09;95229.63;;;16.28;52.56
42247;BME280;27913;42.722;23.268;2023-05-11T11:56:01;95196.06;;;15.83;53.17
42247;BME280;27913;42.722;23.268;2023-05-11T12:01:05;95219.59;;;15.73;53.64
42247;BME280;27913;42.722;23.268;2023-05-11T12:03:35;95222.06;;;15.67;53.44
42247;BME280;27913;42.722;23.268;2023-05-11T12:06:04;95159.81;;;15.12;54.12
42247;BME280;27913;42.722;23.268;2023-05-11T12:08:30;95216.84;;;15.21;55.03
42247;BME280;27913;42.722;23.268;2023-05-11T12:10:57;95071.59;;;14.27;56.20
42247;BME280;27913;42.722;23.268;2023-05-11T12:13:26;95129.81;;;14.72;56.33
42247;BME280;27913;42.722;23.268;2023-05-11T12:16:08;95183.94;;;14.90;56.19
42247;BME280;27913;42.722;23.268;2023-05-11T12:18:34;95072.81;;;14.17;56.26
42247;BME280;27913;42.722;23.268;2023-05-11T12:21:00;95173.72;;;15.01;55.70
42247;BME280;27913;42.722;23.268;2023-05-11T12:23:26;95178.81;;;15.02;56.49
42247;BME280;27913;42.722;23.268;2023-05-11T12:26:02;95209.81;;;15.34;55.56
42247;BME280;27913;42.722;23.268;2023-05-11T12:28:27;95151.78;;;14.87;55.95
42247;BME280;27913;42.722;23.268;2023-05-11T12:30:56;95209.31;;;15.12;55.90
42247;BME280;27913;42.722;23.268;2023-05-11T12:33:22;95167.81;;;15.05;55.73
42247;BME280;27913;42.722;23.268;2023-05-11T12:35:52;95160.66;;;15.06;55.56
42247;BME280;27913;42.722;23.268;2023-05-11T12:38:18;95191.09;;;15.29;56.08
42247;BME280;27913;42.722;23.268;2023-05-11T12:40:47;95149.25;;;15.05;55.23
42247;BME280;27913;42.722;23.268;2023-05-11T12:43:16;95133.09;;;14.68;56.21
42247;BME280;27913;42.722;23.268;2023-05-11T12:45:42;95103.03;;;14.48;56.44
42247;BME280;27913;42.722;23.268;2023-05-11T12:48:08;95116.84;;;14.57;56.21
42247;BME280;27913;42.722;23.268;2023-05-11T12:50:42;95181.88;;;14.99;56.50
42247;BME280;27913;42.722;23.268;2023-05-11T12:53:12;95181.06;;;14.92;57.75
42247;BME280;27913;42.722;23.268;2023-05-11T12:55:39;95184.00;;;14.70;57.74
42247;BME280;27913;42.722;23.268;2023-05-11T12:58:10;95151.44;;;14.63;57.55
42247;BME280;27913;42.722;23.268;2023-05-11T13:00:36;95117.94;;;14.36;57.19
42247;BME280;27913;42.722;23.268;2023-05-11T13:03:02;95166.56;;;14.35;57.90
42247;BME280;27913;42.722;23.268;2023-05-11T13:05:29;95169.78;;;14.51;57.63
42247;BME280;27913;42.722;23.268;2023-05-11T13:08:02;95081.63;;;13.84;57.90
42247;BME280;27913;42.722;23.268;2023-05-11T13:10:28;95111.66;;;14.23;57.87
42247;BME280;27913;42.722;23.268;2023-05-11T13:12:54;95124.66;;;14.25;58.46
42247;BME280;27913;42.722;23.268;2023-05-11T13:15:21;95156.38;;;14.45;57.88
42247;BME280;27913;42.722;23.268;2023-05-11T13:17:55;95133.00;;;14.35;57.45
42247;BME280;27913;42.722;23.268;2023-05-11T13:20:23;95166.34;;;14.43;57.50
42247;BME280;27913;42.722;23.268;2023-05-11T13:23:10;95159.66;;;14.20;58.40
42247;BME280;27913;42.722;23.268;2023-05-11T13:28:12;95143.03;;;13.99;58.82
42247;BME280;27913;42.722;23.268;2023-05-11T13:30:38;95154.22;;;14.01;59.04
42247;BME280;27913;42.722;23.268;2023-05-11T13:33:03;95126.16;;;13.67;59.51
42247;BME280;27913;42.722;23.268;2023-05-11T13:35:29;95053.78;;;13.34;59.54
42247;BME280;27913;42.722;23.268;2023-05-11T13:37:55;95146.91;;;14.04;59.48
42247;BME280;27913;42.722;23.268;2023-05-11T13:40:22;95027.56;;;13.25;59.59
42247;BME280;27913;42.722;23.268;2023-05-11T13:42:47;95152.56;;;13.94;60.27
42247;BME280;27913;42.722;23.268;2023-05-11T13:45:12;95160.72;;;13.79;60.31
42247;BME280;27913;42.722;23.268;2023-05-11T13:47:38;95120.63;;;13.48;60.66
42247;BME280;27913;42.722;23.268;2023-05-11T13:50:04;95077.94;;;13.24;60.94
42247;BME280;27913;42.722;23.268;2023-05-11T13:52:30;95118.84;;;13.69;60.42
42247;BME280;27913;42.722;23.268;2023-05-11T13:54:55;95157.66;;;13.75;61.08
42247;BME280;27913;42.722;23.268;2023-05-11T13:57:21;95107.63;;;13.33;61.56
42247;BME280;27913;42.722;23.268;2023-05-11T13:59:47;95121.66;;;13.33;62.19
42247;BME280;27913;42.722;23.268;2023-05-11T14:02:12;95065.09;;;12.93;62.33
42247;BME280;27913;42.722;23.268;2023-05-11T14:04:38;95146.50;;;13.59;62.68
42247;BME280;27913;42.722;23.268;2023-05-11T14:07:04;95114.94;;;13.37;62.14
42247;BME280;27913;42.722;23.268;2023-05-11T14:09:30;95110.25;;;13.33;62.68
42247;BME280;27913;42.722;23.268;2023-05-11T14:11:56;95149.53;;;13.56;62.10
42247;BME280;27913;42.722;23.268;2023-05-11T14:14:21;95154.22;;;13.54;62.62
42247;BME280;27913;42.722;23.268;2023-05-11T14:16:47;95113.94;;;13.32;62.70
42247;BME280;27913;42.722;23.268;2023-05-11T14:19:12;95133.28;;;13.52;62.45
42247;BME280;27913;42.722;23.268;2023-05-11T14:25:51;95077.34;;;13.28;62.39
42247;BME280;27913;42.722;23.268;2023-05-11T14:28:17;95031.59;;;12.87;62.11
42247;BME280;27913;42.722;23.268;2023-05-11T14:30:42;94994.03;;;12.72;61.97
42247;BME280;27913;42.722;23.268;2023-05-11T14:33:08;95034.25;;;12.94;62.05
42247;BME280;27913;42.722;23.268;2023-05-11T14:35:34;95075.31;;;13.17;62.21
42247;BME280;27913;42.722;23.268;2023-05-11T14:37:59;95127.34;;;13.50;62.26
42247;BME280;27913;42.722;23.268;2023-05-11T14:40:26;95140.38;;;13.52;62.20
42247;BME280;27913;42.722;23.268;2023-05-11T14:42:51;95142.78;;;13.47;62.49
42247;BME280;27913;42.722;23.268;2023-05-11T14:45:18;95018.34;;;12.67;62.82
42247;BME280;27913;42.722;23.268;2023-05-11T14:47:43;95138.75;;;13.51;62.81
42247;BME280;27913;42.722;23.268;2023-05-11T14:50:09;95130.19;;;13.35;62.88
42247;BME280;27913;42.722;23.268;2023-05-11T14:52:34;95139.94;;;13.28;62.79
42247;BME280;27913;42.722;23.268;2023-05-11T14:55:00;95095.94;;;12.86;62.97
42247;BME280;27913;42.722;23.268;2023-05-11T14:57:26;95048.38;;;12.52;63.20
42247;BME280;27913;42.722;23.268;2023-05-11T14:59:51;95116.63;;;12.76;63.76
42247;BME280;27913;42.722;23.268;2023-05-11T15:02:16;95111.31;;;12.69;64.17
42247;BME280;27913;42.722;23.268;2023-05-11T15:04:42;95149.34;;;12.88;64.12
42247;BME280;27913;42.722;23.268;2023-05-11T15:07:08;95143.44;;;12.79;63.37
42247;BME280;27913;42.722;23.268;2023-05-11T15:09:33;95153.53;;;12.69;64.18
42247;BME280;27913;42.722;23.268;2023-05-11T15:12:00;94977.16;;;11.54;64.22
42247;BME280;27913;42.722;23.268;2023-05-11T15:14:28;95125.84;;;12.44;64.54
42247;BME280;27913;42.722;23.268;2023-05-11T15:16:54;95045.81;;;11.88;64.59
42247;BME280;27913;42.722;23.268;2023-05-11T15:19:23;95087.28;;;12.08;64.85
42247;BME280;27913;42.722;23.268;2023-05-11T15:21:49;95137.19;;;12.38;64.37
42247;BME280;27913;42.722;23.268;2023-05-11T15:24:14;95137.56;;;12.35;65.02
42247;BME280;27913;42.722;23.268;2023-05-11T15:26:40;95061.78;;;11.80;64.43
42247;BME280;27913;42.722;23.268;2023-05-11T15:29:05;95135.53;;;12.37;64.80
42247;BME280;27913;42.722;23.268;2023-05-11T15:31:31;95145.66;;;12.34;64.40
42247;BME280;27913;42.722;23.268;2023-05-11T15:33:57;95046.59;;;11.82;64.49
42247;BME280;27913;42.722;23.268;2023-05-11T15:36:22;95139.63;;;12.40;64.68
42247;BME280;27913;42.722;23.268;2023-05-11T15:38:48;95129.88;;;12.40;64.58
42247;BME280;27913;42.722;23.268;2023-05-11T15:41:13;95037.06;;;11.81;63.87
42247;BME280;27913;42.722;23.268;2023-05-11T15:43:39;95139.41;;;12.41;64.24
42247;BME280;27913;42.722;23.268;2023-05-11T15:46:04;95025.44;;;11.68;64.23
42247;BME280;27913;42.722;23.268;2023-05-11T15:48:31;95105.41;;;12.18;63.87
42247;BME280;27913;42.722;23.268;2023-05-11T15:50:58;95114.56;;;12.22;64.16
42247;BME280;27913;42.722;23.268;2023-05-11T15:53:24;95135.06;;;12.27;64.23
42247;BME280;27913;42.722;23.268;2023-05-11T15:55:50;95060.28;;;11.70;64.49
42247;BME280;27913;42.722;23.268;2023-05-11T15:58:17;95054.56;;;11.60;64.62
42247;BME280;27913;42.722;23.268;2023-05-11T16:00:43;95147.59;;;12.18;65.19
42247;BME280;27913;42.722;23.268;2023-05-11T16:03:08;94992.09;;;11.18;64.85
42247;BME280;27913;42.722;23.268;2023-05-11T16:05:34;95110.97;;;12.01;64.85
42247;BME280;27913;42.722;23.268;2023-05-11T16:08:01;95111.59;;;12.03;65.04
42247;BME280;27913;42.722;23.268;2023-05-11T16:10:27;95151.88;;;12.19;65.75
42247;BME280;27913;42.722;23.268;2023-05-11T16:12:52;95105.63;;;11.88;65.70
42247;BME280;27913;42.722;23.268;2023-05-11T16:15:18;95144.91;;;12.11;65.54
42247;BME280;27913;42.722;23.268;2023-05-11T16:17:43;95093.00;;;11.83;65.36
42247;BME280;27913;42.722;23.268;2023-05-11T16:20:10;95142.47;;;12.10;65.28
42247;BME280;27913;42.722;23.268;2023-05-11T16:22:36;95083.22;;;11.70;65.05
42247;BME280;27913;42.722;23.268;2023-05-11T16:25:03;95045.13;;;11.44;65.15
42247;BME280;27913;42.722;23.268;2023-05-11T16:27:30;95144.66;;;12.06;65.03
42247;BME280;27913;42.722;23.268;2023-05-11T16:29:55;95146.31;;;12.07;65.12
42247;BME280;27913;42.722;23.268;2023-05-11T16:32:22;95096.03;;;11.80;65.18
42247;BME280;27913;42.722;23.268;2023-05-11T16:34:47;95143.81;;;12.05;64.75
42247;BME280;27913;42.722;23.268;2023-05-11T16:37:14;95084.34;;;11.60;65.21
42247;BME280;27913;42.722;23.268;2023-05-11T16:39:39;95087.25;;;11.72;65.67
42247;BME280;27913;42.722;23.268;2023-05-11T16:42:05;95102.50;;;11.77;65.48
42247;BME280;27913;42.722;23.268;2023-05-11T16:44:31;94989.97;;;11.07;64.97
42247;BME280;27913;42.722;23.268;2023-05-11T16:47:06;95146.63;;;11.97;65.43
42247;BME280;27913;42.722;23.268;2023-05-11T16:49:31;95078.66;;;11.57;65.41
42247;BME280;27913;42.722;23.268;2023-05-11T16:51:57;95149.06;;;11.99;65.99
42247;BME280;27913;42.722;23.268;2023-05-11T16:54:25;95154.34;;;11.99;65.86
42247;BME280;27913;42.722;23.268;2023-05-11T16:56:58;95048.91;;;11.34;65.95
42247;BME280;27913;42.722;23.268;2023-05-11T16:59:25;95135.16;;;11.83;66.04
42247;BME280;27913;42.722;23.268;2023-05-11T17:01:51;95081.66;;;11.54;66.34
42247;BME280;27913;42.722;23.268;2023-05-11T17:04:17;95094.06;;;11.60;66.70
42247;BME280;27913;42.722;23.268;2023-05-11T17:06:43;95155.34;;;11.98;66.80
42247;BME280;27913;42.722;23.268;2023-05-11T17:09:08;95155.34;;;11.98;66.72
42247;BME280;27913;42.722;23.268;2023-05-11T17:11:34;95159.41;;;12.00;66.40
42247;BME280;27913;42.722;23.268;2023-05-11T17:14:01;95011.16;;;10.98;66.72
42247;BME280;27913;42.722;23.268;2023-05-11T17:16:28;95137.50;;;11.71;66.70
42247;BME280;27913;42.722;23.268;2023-05-11T17:18:53;95117.72;;;11.53;67.35
42247;BME280;27913;42.722;23.268;2023-05-11T17:21:19;95164.63;;;11.93;67.06
42247;BME280;27913;42.722;23.268;2023-05-11T17:23:44;95132.28;;;11.78;67.24
42247;BME280;27913;42.722;23.268;2023-05-11T17:26:11;95067.09;;;11.29;67.27
42247;BME280;27913;42.722;23.268;2023-05-11T17:28:37;95146.88;;;11.74;67.35
42247;BME280;27913;42.722;23.268;2023-05-11T17:31:11;95149.66;;;11.72;67.26
42247;BME280;27913;42.722;23.268;2023-05-11T17:33:39;95143.13;;;11.61;67.54
42247;BME280;27913;42.722;23.268;2023-05-11T17:36:06;95024.13;;;10.78;67.45
42247;BME280;27913;42.722;23.268;2023-05-11T17:38:32;95164.88;;;11.70;67.63
42247;BME280;27913;42.722;23.268;2023-05-11T17:40:58;95164.88;;;11.70;68.04
42247;BME280;27913;42.722;23.268;2023-05-11T17:43:32;95130.50;;;11.56;67.29
42247;BME280;27913;42.722;23.268;2023-05-11T17:46:11;95167.19;;;11.80;67.12
42247;BME280;27913;42.722;23.268;2023-05-11T17:48:37;95102.44;;;11.42;67.24
42247;BME280;27913;42.722;23.268;2023-05-11T17:51:02;95049.06;;;11.04;67.15
42247;BME280;27913;42.722;23.268;2023-05-11T17:53:28;95158.00;;;11.76;67.32
42247;BME280;27913;42.722;23.268;2023-05-11T17:55:57;95166.31;;;11.72;67.48
42247;BME280;27913;42.722;23.268;2023-05-11T17:58:22;95109.72;;;11.40;67.58
42247;BME280;27913;42.722;23.268;2023-05-11T18:00:50;95157.47;;;11.80;67.45
42247;BME280;27913;42.722;23.268;2023-05-11T18:03:16;95156.00;;;11.78;67.30
42247;BME280;27913;42.722;23.268;2023-05-11T18:05:41;95142.97;;;11.69;67.82
42247;BME280;27913;42.722;23.268;2023-05-11T18:08:07;95125.63;;;11.53;67.25
42247;BME280;27913;42.722;23.268;2023-05-11T18:10:33;95039.22;;;10.91;67.12
42247;BME280;27913;42.722;23.268;2023-05-11T18:12:58;95133.56;;;11.60;67.28
42247;BME280;27913;42.722;23.268;2023-05-11T18:15:24;95137.72;;;11.69;67.12
42247;BME280;27913;42.722;23.268;2023-05-11T18:17:49;95149.00;;;11.63;67.31
42247;BME280;27913;42.722;23.268;2023-05-11T18:20:15;95170.28;;;11.90;66.72
42247;BME280;27913;42.722;23.268;2023-05-11T18:22:40;95166.16;;;11.81;67.15
42247;BME280;27913;42.722;23.268;2023-05-11T18:25:06;95164.97;;;11.83;67.09
42247;BME280;27913;42.722;23.268;2023-05-11T18:27:33;95171.06;;;11.84;67.26
42247;BME280;27913;42.722;23.268;2023-05-11T18:29:59;95189.44;;;11.77;67.45
42247;BME280;27913;42.722;23.268;2023-05-11T18:32:26;95175.31;;;11.63;67.56
42247;BME280;27913;42.722;23.268;2023-05-11T18:34:52;95152.16;;;11.52;67.51
42247;BME280;27913;42.722;23.268;2023-05-11T18:37:17;95113.09;;;11.33;67.22
42247;BME280;27913;42.722;23.268;2023-05-11T18:39:43;95033.25;;;10.82;67.52
42247;BME280;27913;42.722;23.268;2023-05-11T18:42:09;95185.22;;;11.83;67.56
42247;BME280;27913;42.722;23.268;2023-05-11T18:44:35;95187.66;;;11.84;67.58
42247;BME280;27913;42.722;23.268;2023-05-11T18:47:00;95196.34;;;11.78;67.60
42247;BME280;27913;42.722;23.268;2023-05-11T18:49:26;95163.19;;;11.62;67.58
42247;BME280;27913;42.722;23.268;2023-05-11T18:51:51;95174.72;;;11.61;67.83
42247;BME280;27913;42.722;23.268;2023-05-11T18:54:16;95144.38;;;11.43;67.63
42247;BME280;27913;42.722;23.268;2023-05-11T18:56:42;95167.19;;;11.58;67.80
42247;BME280;27913;42.722;23.268;2023-05-11T18:59:08;95199.97;;;11.77;68.02
42247;BME280;27913;42.722;23.268;2023-05-11T19:01:33;95087.75;;;11.10;67.88
42247;BME280;27913;42.722;23.268;2023-05-11T19:03:59;95163.38;;;11.60;67.84
42247;BME280;27913;42.722;23.268;2023-05-11T19:06:25;95197.78;;;11.81;67.74
42247;BME280;27913;42.722;23.268;2023-05-11T19:08:50;95190.44;;;11.76;67.28
42247;BME280;27913;42.722;23.268;2023-05-11T19:11:16;95200.78;;;11.78;67.38
42247;BME280;27913;42.722;23.268;2023-05-11T19:13:42;95200.16;;;11.76;67.28
42247;BME280;27913;42.722;23.268;2023-05-11T19:16:08;95197.28;;;11.70;67.45
42247;BME280;27913;42.722;23.268;2023-05-11T19:18:34;95197.84;;;11.66;67.70
42247;BME280;27913;42.722;23.268;2023-05-11T19:21:02;95201.38;;;11.73;67.19
42247;BME280;27913;42.722;23.268;2023-05-11T19:23:29;95177.56;;;11.59;67.46
42247;BME280;27913;42.722;23.268;2023-05-11T19:25:56;95202.34;;;11.72;67.64
42247;BME280;27913;42.722;23.268;2023-05-11T19:28:21;95202.56;;;11.70;67.56
42247;BME280;27913;42.722;23.268;2023-05-11T19:30:47;95204.63;;;11.75;67.71
42247;BME280;27913;42.722;23.268;2023-05-11T19:33:12;95204.63;;;11.75;67.82
42247;BME280;27913;42.722;23.268;2023-05-11T19:35:38;95203.81;;;11.75;67.97
42247;BME280;27913;42.722;23.268;2023-05-11T19:38:04;95156.09;;;11.41;68.23
42247;BME280;27913;42.722;23.268;2023-05-11T19:40:31;95205.63;;;11.74;68.36
42247;BME280;27913;42.722;23.268;2023-05-11T19:43:00;95205.56;;;11.89;67.73
42247;BME280;27913;42.722;23.268;2023-05-11T19:45:26;95200.84;;;11.84;68.03
42247;BME280;27913;42.722;23.268;2023-05-11T19:47:55;95200.41;;;11.81;68.31
42247;BME280;27913;42.722;23.268;2023-05-11T19:50:21;95063.53;;;10.93;68.47
42247;BME280;27913;42.722;23.268;2023-05-11T19:52:47;95201.81;;;11.77;68.43
42247;BME280;27913;42.722;23.268;2023-05-11T19:55:12;95104.94;;;11.06;68.61
42247;BME280;27913;42.722;23.268;2023-05-11T19:57:38;95204.38;;;11.70;68.96
42247;BME280;27913;42.722;23.268;2023-05-11T20:00:07;95199.97;;;11.77;69.11
42247;BME280;27913;42.722;23.268;2023-05-11T20:02:34;95197.19;;;11.79;69.21
42247;BME280;27913;42.722;23.268;2023-05-11T20:05:00;95203.44;;;11.78;69.42
42247;BME280;27913;42.722;23.268;2023-05-11T20:07:26;95204.84;;;11.74;69.81
42247;BME280;27913;42.722;23.268;2023-05-11T20:09:52;95180.09;;;11.53;70.22
42247;BME280;27913;42.722;23.268;2023-05-11T20:12:18;95170.38;;;11.53;70.38
42247;BME280;27913;42.722;23.268;2023-05-11T20:14:43;95201.03;;;11.83;70.29
42247;BME280;27913;42.722;23.268;2023-05-11T20:17:09;95193.66;;;11.71;70.19
42247;BME280;27913;42.722;23.268;2023-05-11T20:19:35;95208.06;;;11.76;70.87
42247;BME280;27913;42.722;23.268;2023-05-11T20:22:01;95162.19;;;11.41;71.15
42247;BME280;27913;42.722;23.268;2023-05-11T20:24:27;95155.09;;;11.42;71.26
42247;BME280;27913;42.722;23.268;2023-05-11T20:26:53;95206.25;;;11.76;71.01
42247;BME280;27913;42.722;23.268;2023-05-11T20:29:19;95210.66;;;11.69;71.35
42247;BME280;27913;42.722;23.268;2023-05-11T20:31:44;95148.50;;;11.31;71.72
42247;BME280;27913;42.722;23.268;2023-05-11T20:34:11;95205.06;;;11.57;72.03
42247;BME280;27913;42.722;23.268;2023-05-11T20:36:36;95208.16;;;11.60;72.10
42247;BME280;27913;42.722;23.268;2023-05-11T20:39:02;95208.16;;;11.60;72.42
42247;BME280;27913;42.722;23.268;2023-05-11T20:41:30;95203.06;;;11.59;72.25
42247;BME280;27913;42.722;23.268;2023-05-11T20:43:55;95066.16;;;10.71;72.30
42247;BME280;27913;42.722;23.268;2023-05-11T20:46:21;95207.00;;;11.48;72.84
42247;BME280;27913;42.722;23.268;2023-05-11T20:48:46;95179.28;;;11.30;73.14
42247;BME280;27913;42.722;23.268;2023-05-11T20:51:12;95146.16;;;10.99;73.37
42247;BME280;27913;42.722;23.268;2023-05-11T20:53:37;95173.75;;;11.03;73.84
42247;BME280;27913;42.722;23.268;2023-05-11T20:56:03;95205.44;;;11.32;73.92
42247;BME280;27913;42.722;23.268;2023-05-11T20:58:29;95168.31;;;11.05;74.29
42247;BME280;27913;42.722;23.268;2023-05-11T21:00:55;95055.78;;;10.33;74.40
42247;BME280;27913;42.722;23.268;2023-05-11T21:03:20;95217.53;;;11.26;74.57
42247;BME280;27913;42.722;23.268;2023-05-11T21:05:46;95167.22;;;10.99;74.58
42247;BME280;27913;42.722;23.268;2023-05-11T21:08:11;95160.63;;;10.88;74.55
42247;BME280;27913;42.722;23.268;2023-05-11T21:10:38;95215.75;;;11.11;75.30
42247;BME280;27913;42.722;23.268;2023-05-11T21:13:04;95226.28;;;11.11;75.22
42247;BME280;27913;42.722;23.268;2023-05-11T21:15:29;95214.47;;;11.07;75.17
42247;BME280;27913;42.722;23.268;2023-05-11T21:17:55;95201.75;;;11.11;75.17
42247;BME280;27913;42.722;23.268;2023-05-11T21:20:20;95214.47;;;11.07;75.02
42247;BME280;27913;42.722;23.268;2023-05-11T21:22:46;95103.44;;;10.30;75.37
42247;BME280;27913;42.722;23.268;2023-05-11T21:25:11;95190.03;;;10.77;75.52
42247;BME280;27913;42.722;23.268;2023-05-11T21:27:37;95216.78;;;10.95;75.32
42247;BME280;27913;42.722;23.268;2023-05-11T21:30:02;95165.31;;;10.56;74.92
42247;BME280;27913;42.722;23.268;2023-05-11T21:32:28;95218.38;;;10.96;75.14
42247;BME280;27913;42.722;23.268;2023-05-11T21:34:54;95226.66;;;10.93;75.03
42247;BME280;27913;42.722;23.268;2023-05-11T21:37:19;95225.31;;;10.97;74.96
42247;BME280;27913;42.722;23.268;2023-05-11T21:39:48;95176.63;;;10.56;75.24
42247;BME280;27913;42.722;23.268;2023-05-11T21:42:14;95233.50;;;10.87;75.14
42247;BME280;27913;42.722;23.268;2023-05-11T21:44:40;95228.13;;;10.81;75.32
42247;BME280;27913;42.722;23.268;2023-05-11T21:47:06;95224.13;;;10.85;74.88
42247;BME280;27913;42.722;23.268;2023-05-11T21:49:31;95236.00;;;10.81;75.23
42247;BME280;27913;42.722;23.268;2023-05-11T21:51:58;95227.50;;;10.79;75.74
42247;BME280;27913;42.722;23.268;2023-05-11T21:54:23;95229.13;;;10.80;76.09
42247;BME280;27913;42.722;23.268;2023-05-11T21:56:50;95233.47;;;10.72;76.17
42247;BME280;27913;42.722;23.268;2023-05-11T21:59:16;95229.41;;;10.70;76.30
42247;BME280;27913;42.722;23.268;2023-05-11T22:01:43;95190.03;;;10.31;76.58
42247;BME280;27913;42.722;23.268;2023-05-11T22:04:09;95233.75;;;10.62;75.96
42247;BME280;27913;42.722;23.268;2023-05-11T22:06:35;95236.84;;;10.66;75.85
42247;BME280;27913;42.722;23.268;2023-05-11T22:09:02;95239.53;;;10.58;76.04
42247;BME280;27913;42.722;23.268;2023-05-11T22:11:28;95245.00;;;10.56;76.54
42247;BME280;27913;42.722;23.268;2023-05-11T22:13:54;95210.22;;;10.31;77.25
42247;BME280;27913;42.722;23.268;2023-05-11T22:16:19;95168.69;;;9.96;77.94
42247;BME280;27913;42.722;23.268;2023-05-11T22:18:45;95240.88;;;10.38;78.84
42247;BME280;27913;42.722;23.268;2023-05-11T22:21:10;95217.56;;;10.20;79.78
42247;BME280;27913;42.722;23.268;2023-05-11T22:23:36;95239.50;;;10.27;80.59
42247;BME280;27913;42.722;23.268;2023-05-11T22:26:02;95172.03;;;9.89;81.15
42247;BME280;27913;42.722;23.268;2023-05-11T22:28:27;95094.06;;;9.36;81.93
42247;BME280;27913;42.722;23.268;2023-05-11T22:30:56;95229.88;;;10.20;82.12
42247;BME280;27913;42.722;23.268;2023-05-11T22:33:22;95238.97;;;10.32;82.41